Time;durP1;ratioP1;P1;durP2;ratioP2;P2;SDS_P1;SDS_P2;PMS_P1;PMS_P2;Temp;Humidity;BMP_temperature;BMP_pressure;BME280_temperature;BME280_humidity;BME280_pressure;Samples;Min_cycle;Max_cycle;Signal;HPM_P1;HPM_P2
2023/05/15 00:00:57;0.00;0.00;0.62;0.00;0.00;0.62;4.13;3.73;;;28.30;21.40;;;;;;2252026;61;20426;-63
2023/05/15 00:03:42;0.00;0.00;0.62;0.00;0.00;0.62;4.50;4.10;;;28.30;22.00;;;;;;2252501;61;20747;-61
2023/05/15 00:06:27;0.00;0.00;0.62;0.00;0.00;0.62;4.60;4.20;;;28.20;21.40;;;;;;2251949;61;20426;-58
2023/05/15 00:09:11;0.00;0.00;0.62;0.00;0.00;0.62;4.70;4.30;;;28.20;21.40;;;;;;2252137;61;20366;-62
2023/05/15 00:11:56;0.00;0.00;0.62;0.00;0.00;0.62;5.63;4.20;;;28.20;21.40;;;;;;2251720;61;20406;-62
2023/05/15 00:14:40;0.00;0.00;0.62;0.00;0.00;0.62;4.73;4.33;;;28.20;21.40;;;;;;2252325;61;20425;-62
2023/05/15 00:17:26;0.00;0.00;0.62;0.00;0.00;0.62;4.47;4.07;;;28.20;21.40;;;;;;2252166;61;20417;-62
2023/05/15 00:20:12;0.00;0.00;0.62;0.00;0.00;0.62;4.40;4.00;;;28.20;21.40;;;;;;2251423;61;20406;-62
2023/05/15 00:22:57;0.00;0.00;0.62;0.00;0.00;0.62;4.93;4.10;;;28.20;21.40;;;;;;2252352;61;20386;-62
2023/05/15 00:25:42;0.00;0.00;0.62;0.00;0.00;0.62;3.80;3.50;;;28.20;21.40;;;;;;2252576;61;20472;-60
2023/05/15 00:28:26;0.00;0.00;0.62;0.00;0.00;0.62;4.10;3.80;;;28.20;21.40;;;;;;2251682;61;20426;-62
2023/05/15 00:31:13;0.00;0.00;0.62;0.00;0.00;0.62;4.90;4.50;;;28.20;21.40;;;;;;2251586;61;20434;-62
2023/05/15 00:33:59;0.00;0.00;0.62;0.00;0.00;0.62;4.00;3.70;;;28.20;21.40;;;;;;2252004;61;20444;-62
2023/05/15 00:36:44;0.00;0.00;0.62;0.00;0.00;0.62;4.30;3.73;;;28.20;21.40;;;;;;2252362;61;20429;-62
2023/05/15 00:39:29;0.00;0.00;0.62;0.00;0.00;0.62;4.07;3.77;;;28.20;21.90;;;;;;2251372;61;20623;-62
2023/05/15 00:42:15;0.00;0.00;0.62;0.00;0.00;0.62;4.50;4.10;;;28.10;21.40;;;;;;2251636;61;20898;-62
2023/05/15 00:45:01;0.00;0.00;0.62;0.00;0.00;0.62;3.67;3.30;;;28.10;21.40;;;;;;2252190;61;20451;-63
2023/05/15 00:47:46;0.00;0.00;0.62;0.00;0.00;0.62;4.00;3.60;;;28.10;21.40;;;;;;2252242;61;20548;-62
2023/05/15 00:50:32;0.00;0.00;0.62;0.00;0.00;0.62;4.20;3.80;;;28.10;21.40;;;;;;2251176;61;20457;-62
2023/05/15 00:53:17;0.00;0.00;0.62;0.00;0.00;0.62;3.80;3.50;;;28.10;21.40;;;;;;2251434;61;20422;-62
2023/05/15 00:56:05;0.00;0.00;0.62;0.00;0.00;0.62;3.60;3.27;;;28.10;21.40;;;;;;2251800;61;20410;-60
2023/05/15 00:58:52;0.00;0.00;0.62;0.00;0.00;0.62;3.63;3.33;;;28.10;21.40;;;;;;2251636;61;20922;-62
2023/05/15 01:01:37;0.00;0.00;0.62;0.00;0.00;0.62;3.43;3.13;;;28.10;21.40;;;;;;2252023;61;20445;-62
2023/05/15 01:04:22;0.00;0.00;0.62;0.00;0.00;0.62;4.00;3.60;;;28.10;21.40;;;;;;2251619;61;20446;-62
2023/05/15 01:07:09;0.00;0.00;0.62;0.00;0.00;0.62;3.47;3.17;;;28.10;21.40;;;;;;2252121;61;20382;-61
2023/05/15 01:09:55;0.00;0.00;0.62;0.00;0.00;0.62;4.53;3.63;;;28.10;21.40;;;;;;2251779;61;20375;-61
2023/05/15 01:12:42;0.00;0.00;0.62;0.00;0.00;0.62;3.70;3.40;;;28.10;21.40;;;;;;2251553;61;20465;-62
2023/05/15 01:15:26;0.00;0.00;0.62;0.00;0.00;0.62;3.97;3.67;;;28.10;21.40;;;;;;2252107;61;20371;-60
2023/05/15 01:18:11;0.00;0.00;0.62;0.00;0.00;0.62;4.77;4.20;;;28.10;21.40;;;;;;2252270;61;20370;-64
2023/05/15 01:21:24;0.00;0.00;0.62;0.00;0.00;0.62;3.50;3.20;;;28.10;21.40;;;;;;2257012;55;20409;-62
2023/05/15 01:24:41;0.00;0.00;0.62;0.00;0.00;0.62;3.60;3.30;;;28.10;21.40;;;;;;2256305;61;20806;-66
2023/05/15 01:27:34;0.00;0.00;0.62;0.00;0.00;0.62;3.67;3.37;;;28.10;21.40;;;;;;2255669;61;20366;-63
2023/05/15 01:30:27;0.00;0.00;0.62;0.00;0.00;0.62;4.73;4.30;;;28.10;21.40;;;;;;2255707;61;20452;-61
2023/05/15 01:33:19;0.00;0.00;0.62;0.00;0.00;0.62;3.77;3.30;;;28.00;21.40;;;;;;2255751;61;20915;-62
2023/05/15 01:36:11;0.00;0.00;0.62;0.00;0.00;0.62;3.60;3.30;;;28.00;21.40;;;;;;2258437;61;20370;-62
2023/05/15 01:39:01;0.00;0.00;0.62;0.00;0.00;0.62;3.60;3.30;;;28.00;21.40;;;;;;2256073;61;20397;-59
2023/05/15 01:41:53;0.00;0.00;0.62;0.00;0.00;0.62;3.57;3.27;;;28.00;21.40;;;;;;2255546;61;20922;-61
2023/05/15 01:44:45;0.00;0.00;0.62;0.00;0.00;0.62;3.63;3.33;;;28.00;21.40;;;;;;2256090;61;20956;-62
2023/05/15 01:47:38;0.00;0.00;0.62;0.00;0.00;0.62;4.83;3.90;;;28.00;21.40;;;;;;2255879;61;20374;-61
2023/05/15 01:50:25;0.00;0.00;0.62;0.00;0.00;0.62;3.50;3.20;;;28.00;21.40;;;;;;2258202;61;20393;-61
2023/05/15 01:53:11;0.00;0.00;0.62;0.00;0.00;0.62;3.47;3.17;;;28.00;21.40;;;;;;2256220;61;20385;-61
2023/05/15 01:55:57;0.00;0.00;0.62;0.00;0.00;0.62;3.40;3.10;;;28.00;21.50;;;;;;2257970;61;20909;-62
2023/05/15 01:58:43;0.00;0.00;0.62;0.00;0.00;0.62;3.20;3.00;;;28.00;21.40;;;;;;2258297;61;20373;-61
2023/05/15 02:01:32;0.00;0.00;0.62;0.00;0.00;0.62;4.27;3.90;;;28.00;21.40;;;;;;2256240;61;20417;-62
2023/05/15 02:04:17;0.00;0.00;0.62;0.00;0.00;0.62;3.50;3.20;;;28.00;21.40;;;;;;2255684;61;20851;-60
2023/05/15 02:07:04;0.00;0.00;0.62;0.00;0.00;0.62;4.43;4.03;;;27.90;21.40;;;;;;2256239;61;20366;-61
2023/05/15 02:09:51;0.00;0.00;0.62;0.00;0.00;0.62;3.83;3.53;;;27.90;21.40;;;;;;2256130;61;20505;-61
2023/05/15 02:12:37;0.00;0.00;0.62;0.00;0.00;0.62;3.73;3.40;;;27.90;21.40;;;;;;2256555;61;20898;-60
2023/05/15 02:15:23;0.00;0.00;0.62;0.00;0.00;0.62;3.43;3.13;;;28.00;21.50;;;;;;2256683;61;20365;-62
2023/05/15 02:18:10;0.00;0.00;0.62;0.00;0.00;0.62;3.67;3.37;;;27.90;21.40;;;;;;2256199;61;20413;-62
2023/05/15 02:20:54;0.00;0.00;0.62;0.00;0.00;0.62;3.43;3.13;;;27.90;21.40;;;;;;2256411;61;20922;-62
2023/05/15 02:23:39;0.00;0.00;0.62;0.00;0.00;0.62;3.47;3.17;;;27.90;21.40;;;;;;2257046;61;20358;-64
2023/05/15 02:26:43;0.00;0.00;0.62;0.00;0.00;0.62;3.60;3.30;;;27.90;21.40;;;;;;2255645;61;20369;-62
2023/05/15 02:29:41;0.00;0.00;0.62;0.00;0.00;0.62;4.10;3.77;;;27.90;21.40;;;;;;2256484;61;20365;-61
2023/05/15 02:32:33;0.00;0.00;0.62;0.00;0.00;0.62;3.50;3.20;;;27.90;21.40;;;;;;2256367;61;20965;-62
2023/05/15 02:35:37;0.00;0.00;0.62;0.00;0.00;0.62;3.37;3.07;;;27.90;21.40;;;;;;2256664;61;20389;-62
2023/05/15 02:38:27;0.00;0.00;0.62;0.00;0.00;0.62;3.80;3.40;;;27.90;21.40;;;;;;2259060;61;20427;-61
2023/05/15 02:41:13;0.00;0.00;0.62;0.00;0.00;0.62;3.87;3.40;;;27.90;21.50;;;;;;2255759;61;20433;-61
2023/05/15 02:43:59;0.00;0.00;0.62;0.00;0.00;0.62;5.53;3.53;;;27.90;21.40;;;;;;2256501;61;20440;-60
2023/05/15 02:46:46;0.00;0.00;0.62;0.00;0.00;0.62;3.30;3.00;;;27.80;21.40;;;;;;2256546;61;20776;-61
2023/05/15 02:49:30;0.00;0.00;0.62;0.00;0.00;0.62;3.67;3.37;;;27.80;21.40;;;;;;2258200;61;20362;-61
2023/05/15 02:52:17;0.00;0.00;0.62;0.00;0.00;0.62;3.87;3.47;;;27.80;21.40;;;;;;2256701;61;20882;-62
2023/05/15 02:55:02;0.00;0.00;0.62;0.00;0.00;0.62;3.43;3.13;;;27.80;21.40;;;;;;2255908;61;20370;-62
2023/05/15 02:57:48;0.00;0.00;0.62;0.00;0.00;0.62;3.73;3.43;;;27.80;21.40;;;;;;2256819;61;20370;-62
2023/05/15 03:00:32;0.00;0.00;0.62;0.00;0.00;0.62;3.90;3.60;;;27.80;21.40;;;;;;2256176;61;21128;-62
2023/05/15 03:03:17;0.00;0.00;0.62;0.00;0.00;0.62;3.37;3.07;;;27.80;21.40;;;;;;2258263;61;20775;-62
2023/05/15 03:06:02;0.00;0.00;0.62;0.00;0.00;0.62;4.37;3.97;;;27.80;21.40;;;;;;2256581;61;20365;-62
2023/05/15 03:08:48;0.00;0.00;0.62;0.00;0.00;0.62;3.87;3.47;;;27.80;21.40;;;;;;2256799;61;20908;-62
2023/05/15 03:11:33;0.00;0.00;0.62;0.00;0.00;0.62;3.33;3.03;;;27.80;21.40;;;;;;2255974;61;20901;-62
2023/05/15 03:14:18;0.00;0.00;0.62;0.00;0.00;0.62;3.57;3.27;;;27.80;21.40;;;;;;2258768;61;20938;-61
2023/05/15 03:17:04;0.00;0.00;0.62;0.00;0.00;0.62;3.73;3.43;;;27.80;21.40;;;;;;2258276;61;20362;-61
2023/05/15 03:19:48;0.00;0.00;0.62;0.00;0.00;0.62;3.70;3.40;;;27.80;21.40;;;;;;2258544;61;20413;-61
2023/05/15 03:22:33;0.00;0.00;0.62;0.00;0.00;0.62;3.70;3.40;;;27.80;21.40;;;;;;2256417;61;20378;-62
2023/05/15 03:25:21;0.00;0.00;0.62;0.00;0.00;0.62;3.57;3.27;;;27.80;21.90;;;;;;2256101;61;20424;-62
2023/05/15 03:28:05;0.00;0.00;0.62;0.00;0.00;0.62;3.97;3.63;;;27.80;21.40;;;;;;2256502;61;20410;-61
2023/05/15 03:30:50;0.00;0.00;0.62;0.00;0.00;0.62;3.20;2.90;;;27.80;21.40;;;;;;2258516;61;20855;-62
2023/05/15 03:33:34;0.00;0.00;0.62;0.00;0.00;0.62;3.90;3.50;;;27.80;21.40;;;;;;2255907;61;20393;-62
2023/05/15 03:36:21;0.00;0.00;0.62;0.00;0.00;0.62;3.60;3.30;;;27.70;21.40;;;;;;2256597;61;20362;-62
2023/05/15 03:39:06;0.00;0.00;0.62;0.00;0.00;0.62;3.30;3.00;;;27.70;21.40;;;;;;2255418;61;20389;-62
2023/05/15 03:41:52;0.00;0.00;0.62;0.00;0.00;0.62;3.47;3.13;;;27.70;21.40;;;;;;2256564;61;20440;-62
2023/05/15 03:44:40;0.00;0.00;0.62;0.00;0.00;0.62;4.00;3.70;;;27.70;21.40;;;;;;2256313;61;20366;-62
2023/05/15 03:47:24;0.00;0.00;0.62;0.00;0.00;0.62;3.30;3.00;;;27.70;21.40;;;;;;2255917;61;20362;-62
2023/05/15 03:50:10;0.00;0.00;0.62;0.00;0.00;0.62;3.57;3.27;;;27.70;21.40;;;;;;2258493;61;20405;-62
2023/05/15 03:52:55;0.00;0.00;0.62;0.00;0.00;0.62;3.50;3.17;;;27.70;22.00;;;;;;2256104;61;20389;-61
2023/05/15 03:55:40;0.00;0.00;0.62;0.00;0.00;0.62;3.80;3.50;;;27.70;21.40;;;;;;2256040;61;20409;-68
2023/05/15 03:58:26;0.00;0.00;0.62;0.00;0.00;0.62;3.30;3.00;;;27.70;21.40;;;;;;2256724;61;20509;-60
2023/05/15 04:01:10;0.00;0.00;0.62;0.00;0.00;0.62;4.00;3.60;;;27.70;21.40;;;;;;2255854;61;20583;-62
2023/05/15 04:03:55;0.00;0.00;0.62;0.00;0.00;0.62;3.60;3.30;;;27.70;22.00;;;;;;2256446;61;20890;-62
2023/05/15 04:06:40;0.00;0.00;0.62;0.00;0.00;0.62;3.30;3.00;;;27.70;21.40;;;;;;2256412;61;20490;-61
2023/05/15 04:09:24;0.00;0.00;0.62;0.00;0.00;0.62;3.67;3.37;;;27.70;21.50;;;;;;2255654;61;20374;-63
2023/05/15 04:12:09;0.00;0.00;0.62;0.00;0.00;0.62;3.63;3.33;;;27.70;21.50;;;;;;2256537;61;20366;-60
2023/05/15 04:14:58;0.00;0.00;0.62;0.00;0.00;0.62;3.50;3.20;;;27.60;21.40;;;;;;2256433;61;20421;-62
2023/05/15 04:17:43;0.00;0.00;0.62;0.00;0.00;0.62;4.03;3.73;;;27.60;21.40;;;;;;2256115;61;20442;-62
2023/05/15 04:20:28;0.00;0.00;0.62;0.00;0.00;0.62;3.13;2.90;;;27.60;21.40;;;;;;2255949;61;20501;-61
2023/05/15 04:23:13;0.00;0.00;0.62;0.00;0.00;0.62;3.13;2.73;;;27.60;21.50;;;;;;2256203;61;20395;-64
2023/05/15 04:25:58;0.00;0.00;0.62;0.00;0.00;0.62;3.80;3.50;;;27.60;21.50;;;;;;2256560;61;20428;-63
2023/05/15 04:28:43;0.00;0.00;0.62;0.00;0.00;0.62;3.73;3.43;;;27.60;22.00;;;;;;2256314;61;20416;-60
2023/05/15 04:31:30;0.00;0.00;0.62;0.00;0.00;0.62;3.50;3.17;;;27.60;21.50;;;;;;2255684;61;20401;-62
2023/05/15 04:34:14;0.00;0.00;0.62;0.00;0.00;0.62;3.17;2.97;;;27.60;21.50;;;;;;2255866;61;20420;-66
2023/05/15 04:37:00;0.00;0.00;0.62;0.00;0.00;0.62;4.30;3.30;;;27.60;21.50;;;;;;2256360;61;20369;-62
2023/05/15 04:39:44;0.00;0.00;0.62;0.00;0.00;0.62;3.60;3.30;;;27.60;21.50;;;;;;2254892;61;20873;-59
2023/05/15 04:42:29;0.00;0.00;0.62;0.00;0.00;0.62;3.10;2.80;;;27.60;22.00;;;;;;2256294;61;20492;-62
2023/05/15 04:45:14;0.00;0.00;0.62;0.00;0.00;0.62;3.60;3.30;;;27.60;21.50;;;;;;2256340;61;20421;-61
2023/05/15 04:48:00;0.00;0.00;0.62;0.00;0.00;0.62;3.00;2.80;;;27.60;21.50;;;;;;2256137;61;20373;-61
2023/05/15 04:50:44;0.00;0.00;0.62;0.00;0.00;0.62;3.00;2.70;;;27.60;21.50;;;;;;2256117;61;20385;-60
2023/05/15 04:53:29;0.00;0.00;0.62;0.00;0.00;0.62;3.03;2.73;;;27.60;21.50;;;;;;2255521;61;20413;-60
2023/05/15 04:56:14;0.00;0.00;0.62;0.00;0.00;0.62;4.50;4.20;;;27.60;21.50;;;;;;2256192;61;20406;-62
2023/05/15 04:58:58;0.00;0.00;0.62;0.00;0.00;0.62;3.47;3.17;;;27.50;21.40;;;;;;2256117;61;20393;-62
2023/05/15 05:01:44;0.00;0.00;0.62;0.00;0.00;0.62;3.87;3.57;;;27.50;21.40;;;;;;2257767;61;20902;-62
2023/05/15 05:04:30;0.00;0.00;0.62;0.00;0.00;0.62;2.87;2.67;;;27.60;21.50;;;;;;2256208;61;20886;-62
2023/05/15 05:07:15;0.00;0.00;0.62;0.00;0.00;0.62;3.87;2.90;;;27.50;21.50;;;;;;2256179;61;20370;-61
2023/05/15 05:10:00;0.00;0.00;0.62;0.00;0.00;0.62;3.13;2.83;;;27.50;21.50;;;;;;2255265;61;20397;-61
2023/05/15 05:12:45;0.00;0.00;0.62;0.00;0.00;0.62;3.30;3.00;;;27.50;21.50;;;;;;2256243;61;20397;-62
2023/05/15 05:15:30;0.00;0.00;0.62;0.00;0.00;0.62;3.13;2.83;;;27.50;22.00;;;;;;2255748;61;20948;-62
2023/05/15 05:18:14;0.00;0.00;0.62;0.00;0.00;0.62;3.40;3.10;;;27.50;21.50;;;;;;2256303;61;20357;-65
2023/05/15 05:21:01;0.00;0.00;0.62;0.00;0.00;0.62;3.30;3.00;;;27.50;21.50;;;;;;2255798;61;20922;-61
2023/05/15 05:23:46;0.00;0.00;0.62;0.00;0.00;0.62;3.40;3.03;;;27.50;21.50;;;;;;2255351;61;20404;-62
2023/05/15 05:26:31;0.00;0.00;0.62;0.00;0.00;0.62;3.60;3.30;;;27.50;21.50;;;;;;2256213;61;20357;-62
2023/05/15 05:29:16;0.00;0.00;0.62;0.00;0.00;0.62;4.00;3.13;;;27.50;21.50;;;;;;2255809;61;20366;-60
2023/05/15 05:32:00;0.00;0.00;0.62;0.00;0.00;0.62;3.50;3.20;;;27.50;21.50;;;;;;2255575;61;20381;-62
2023/05/15 05:34:45;0.00;0.00;0.62;0.00;0.00;0.62;4.00;3.60;;;27.50;21.50;;;;;;2256088;61;20532;-62
2023/05/15 05:37:30;0.00;0.00;0.62;0.00;0.00;0.62;3.50;3.20;;;27.50;21.50;;;;;;2255625;61;20910;-60
2023/05/15 05:40:16;0.00;0.00;0.62;0.00;0.00;0.62;3.40;3.17;;;27.50;21.50;;;;;;2255753;61;20389;-62
2023/05/15 05:43:01;0.00;0.00;0.62;0.00;0.00;0.62;2.60;2.40;;;27.50;21.50;;;;;;2256693;61;20419;-62
2023/05/15 05:45:47;0.00;0.00;0.62;0.00;0.00;0.62;3.13;2.83;;;27.50;21.50;;;;;;2256302;61;20397;-61
2023/05/15 05:48:31;0.00;0.00;0.62;0.00;0.00;0.62;3.90;3.60;;;27.50;21.50;;;;;;2256986;61;20373;-62
2023/05/15 05:51:16;0.00;0.00;0.62;0.00;0.00;0.62;2.93;2.70;;;27.50;21.50;;;;;;2256596;61;20377;-62
2023/05/15 05:54:02;0.00;0.00;0.62;0.00;0.00;0.62;3.27;2.97;;;27.50;21.50;;;;;;2256480;61;20849;-61
2023/05/15 05:56:47;0.00;0.00;0.62;0.00;0.00;0.62;4.13;3.83;;;27.50;21.50;;;;;;2256722;61;20392;-63
2023/05/15 05:59:31;0.00;0.00;0.62;0.00;0.00;0.62;3.80;3.50;;;27.50;21.50;;;;;;2255911;61;20405;-60
2023/05/15 06:02:16;0.00;0.00;0.62;0.00;0.00;0.62;4.30;3.90;;;27.50;21.50;;;;;;2256350;61;20754;-61
2023/05/15 06:05:00;0.00;0.00;0.62;0.00;0.00;0.62;4.13;3.73;;;27.50;21.50;;;;;;2256628;61;20358;-61
2023/05/15 06:07:45;0.00;0.00;0.62;0.00;0.00;0.62;2.93;2.60;;;27.50;21.50;;;;;;2256445;61;20424;-60
2023/05/15 06:10:32;0.00;0.00;0.62;0.00;0.00;0.62;3.13;2.93;;;27.50;21.50;;;;;;2256531;61;20424;-62
2023/05/15 06:13:16;0.00;0.00;0.62;0.00;0.00;0.62;3.50;3.20;;;27.50;21.60;;;;;;2256358;61;20431;-58
2023/05/15 06:16:01;0.00;0.00;0.62;0.00;0.00;0.62;3.47;3.17;;;27.50;21.60;;;;;;2256246;61;20880;-62
2023/05/15 06:18:46;0.00;0.00;0.62;0.00;0.00;0.62;4.80;3.60;;;27.50;21.60;;;;;;2256438;61;20940;-62
2023/05/15 06:21:30;0.00;0.00;0.62;0.00;0.00;0.62;4.33;3.93;;;27.50;21.60;;;;;;2256684;61;20926;-60
2023/05/15 06:24:15;0.00;0.00;0.62;0.00;0.00;0.62;3.40;3.10;;;27.50;21.60;;;;;;2256565;61;20378;-62
2023/05/15 06:27:01;0.00;0.00;0.62;0.00;0.00;0.62;4.00;3.70;;;27.50;21.60;;;;;;2256888;61;20366;-62
2023/05/15 06:29:45;0.00;0.00;0.62;0.00;0.00;0.62;4.00;3.70;;;27.50;21.60;;;;;;2255703;61;20396;-60
2023/05/15 06:32:32;0.00;0.00;0.62;0.00;0.00;0.62;3.40;3.10;;;27.40;21.60;;;;;;2256569;61;20832;-62
2023/05/15 06:35:17;0.00;0.00;0.62;0.00;0.00;0.62;3.57;3.27;;;27.40;21.60;;;;;;2256431;61;20378;-60
2023/05/15 06:38:02;0.00;0.00;0.62;0.00;0.00;0.62;3.50;3.20;;;27.40;21.60;;;;;;2256087;61;20374;-60
2023/05/15 06:40:46;0.00;0.00;0.62;0.00;0.00;0.62;4.40;3.40;;;27.40;21.60;;;;;;2256209;61;20474;-59
2023/05/15 06:43:32;0.00;0.00;0.62;0.00;0.00;0.62;3.87;3.57;;;27.40;21.60;;;;;;2256631;61;20938;-62
2023/05/15 06:46:17;0.00;0.00;0.62;0.00;0.00;0.62;3.93;3.63;;;27.40;21.60;;;;;;2256111;61;20361;-62
2023/05/15 06:49:02;0.00;0.00;0.62;0.00;0.00;0.62;3.33;3.03;;;27.40;21.60;;;;;;2256630;61;20366;-62
2023/05/15 06:51:47;0.00;0.00;0.62;0.00;0.00;0.62;4.00;3.33;;;27.40;21.60;;;;;;2296574;40;20872;-62
2023/05/15 06:54:32;0.00;0.00;0.62;0.00;0.00;0.62;3.93;3.60;;;27.40;21.60;;;;;;2256562;61;20366;-63
2023/05/15 06:57:16;0.00;0.00;0.62;0.00;0.00;0.62;4.03;3.50;;;27.40;21.60;;;;;;2256793;61;20366;-62
2023/05/15 07:00:04;0.00;0.00;0.62;0.00;0.00;0.62;4.40;4.00;;;27.40;21.60;;;;;;2255694;61;20370;-65
2023/05/15 07:02:49;0.00;0.00;0.62;0.00;0.00;0.62;4.03;3.63;;;27.40;21.70;;;;;;2256676;61;20366;-61
2023/05/15 07:05:34;0.00;0.00;0.62;0.00;0.00;0.62;3.80;3.50;;;27.40;21.60;;;;;;2256592;61;20366;-62
2023/05/15 07:08:18;0.00;0.00;0.62;0.00;0.00;0.62;4.53;4.13;;;27.40;21.70;;;;;;2255784;61;20416;-60
2023/05/15 07:11:04;0.00;0.00;0.62;0.00;0.00;0.62;4.03;3.73;;;27.40;21.60;;;;;;2256652;61;20440;-62
2023/05/15 07:13:48;0.00;0.00;0.62;0.00;0.00;0.62;4.77;4.37;;;27.40;21.70;;;;;;2255995;61;20398;-61
2023/05/15 07:16:34;0.00;0.00;0.62;0.00;0.00;0.62;5.33;4.83;;;27.40;21.70;;;;;;2256607;61;20501;-62
2023/05/15 07:19:20;0.00;0.00;0.62;0.00;0.00;0.62;4.70;4.30;;;27.40;21.70;;;;;;2256378;61;20409;-61
2023/05/15 07:22:04;0.00;0.00;0.62;0.00;0.00;0.62;6.87;5.60;;;27.40;21.70;;;;;;2255664;61;20973;-62
2023/05/15 07:24:49;0.00;0.00;0.62;0.00;0.00;0.62;5.60;5.10;;;27.40;21.70;;;;;;2255991;61;20488;-60
2023/05/15 07:27:34;0.00;0.00;0.62;0.00;0.00;0.62;5.40;4.90;;;27.40;21.70;;;;;;2256518;61;20362;-62
2023/05/15 07:30:19;0.00;0.00;0.62;0.00;0.00;0.62;6.63;5.60;;;27.30;21.70;;;;;;2263487;40;20451;-62
2023/05/15 07:33:05;0.00;0.00;0.62;0.00;0.00;0.62;6.23;5.63;;;27.30;21.70;;;;;;2260671;61;20384;-62
2023/05/15 07:35:50;0.00;0.00;0.62;0.00;0.00;0.62;6.57;5.97;;;27.40;21.70;;;;;;2259946;61;20415;-61
2023/05/15 07:38:35;0.00;0.00;0.62;0.00;0.00;0.62;5.93;5.37;;;27.30;21.70;;;;;;2260204;61;20407;-62
2023/05/15 07:41:20;0.00;0.00;0.62;0.00;0.00;0.62;6.67;6.07;;;27.40;21.70;;;;;;2260245;61;20385;-62
2023/05/15 07:44:05;0.00;0.00;0.62;0.00;0.00;0.62;6.53;5.87;;;27.30;21.70;;;;;;2259908;61;20353;-60
2023/05/15 07:46:50;0.00;0.00;0.62;0.00;0.00;0.62;6.73;6.00;;;27.30;21.70;;;;;;2260285;61;20352;-62
2023/05/15 07:49:36;0.00;0.00;0.62;0.00;0.00;0.62;6.87;6.23;;;27.30;21.70;;;;;;2260148;61;20388;-60
2023/05/15 07:52:20;0.00;0.00;0.62;0.00;0.00;0.62;7.57;6.87;;;27.30;21.80;;;;;;2259907;61;20392;-69
2023/05/15 07:55:06;0.00;0.00;0.62;0.00;0.00;0.62;7.30;6.60;;;27.30;21.70;;;;;;2260498;61;20365;-59
2023/05/15 07:57:51;0.00;0.00;0.62;0.00;0.00;0.62;7.43;6.73;;;27.40;21.80;;;;;;2260216;61;20881;-62
2023/05/15 08:00:35;0.00;0.00;0.62;0.00;0.00;0.62;8.27;7.47;;;27.30;21.70;;;;;;2259935;61;20392;-62
2023/05/15 08:03:20;0.00;0.00;0.62;0.00;0.00;0.62;7.47;6.77;;;27.40;21.80;;;;;;2260391;61;20431;-62
2023/05/15 08:06:07;0.00;0.00;0.62;0.00;0.00;0.62;6.90;6.20;;;27.30;21.80;;;;;;2259518;61;20443;-60
2023/05/15 08:08:52;0.00;0.00;0.62;0.00;0.00;0.62;7.57;6.80;;;27.40;21.80;;;;;;2259919;61;20365;-60
2023/05/15 08:11:36;0.00;0.00;0.62;0.00;0.00;0.62;8.50;7.70;;;27.40;21.80;;;;;;2260387;61;20419;-61
2023/05/15 08:14:21;0.00;0.00;0.62;0.00;0.00;0.62;7.93;7.13;;;27.30;21.80;;;;;;2259670;61;20388;-61
2023/05/15 08:17:05;0.00;0.00;0.62;0.00;0.00;0.62;8.43;7.60;;;27.40;21.80;;;;;;2259837;61;20365;-61
2023/05/15 08:19:51;0.00;0.00;0.62;0.00;0.00;0.62;7.13;6.43;;;27.40;21.80;;;;;;2259999;61;20384;-62
2023/05/15 08:22:37;0.00;0.00;0.62;0.00;0.00;0.62;7.13;6.50;;;27.30;21.80;;;;;;2260080;61;20772;-61
2023/05/15 08:25:21;0.00;0.00;0.62;0.00;0.00;0.62;7.87;7.17;;;27.40;21.90;;;;;;2260100;61;20468;-61
2023/05/15 08:28:06;0.00;0.00;0.62;0.00;0.00;0.62;8.13;7.33;;;27.40;21.90;;;;;;2259793;61;20419;-61
2023/05/15 08:30:50;0.00;0.00;0.62;0.00;0.00;0.62;7.60;6.80;;;27.40;21.90;;;;;;2259908;61;20433;-60
2023/05/15 08:33:35;0.00;0.00;0.62;0.00;0.00;0.62;7.77;7.07;;;27.40;21.90;;;;;;2260058;61;20392;-62
2023/05/15 08:36:20;0.00;0.00;0.62;0.00;0.00;0.62;7.30;6.60;;;27.40;21.90;;;;;;2259611;61;20893;-62
2023/05/15 08:39:08;0.00;0.00;0.62;0.00;0.00;0.62;7.00;6.30;;;27.40;21.90;;;;;;2259260;61;20442;-62
2023/05/15 08:41:57;0.00;0.00;0.62;0.00;0.00;0.62;9.00;8.10;;;27.40;21.90;;;;;;2260102;61;20838;-62
2023/05/15 08:44:42;0.00;0.00;0.62;0.00;0.00;0.62;8.17;6.87;;;27.40;21.90;;;;;;2259761;61;20369;-61
2023/05/15 08:47:28;0.00;0.00;0.62;0.00;0.00;0.62;7.33;6.67;;;27.40;21.90;;;;;;2260137;61;20410;-61
2023/05/15 08:50:15;0.00;0.00;0.62;0.00;0.00;0.62;7.27;6.57;;;27.40;21.90;;;;;;2259245;61;20415;-59
2023/05/15 08:53:01;0.00;0.00;0.62;0.00;0.00;0.62;7.60;6.90;;;27.40;21.90;;;;;;2260168;61;20918;-61
2023/05/15 08:55:47;0.00;0.00;0.62;0.00;0.00;0.62;7.70;6.90;;;27.40;21.90;;;;;;2260271;61;20452;-62
2023/05/15 08:58:32;0.00;0.00;0.62;0.00;0.00;0.62;7.20;6.50;;;27.40;21.90;;;;;;2259555;61;20415;-61
2023/05/15 09:01:17;0.00;0.00;0.62;0.00;0.00;0.62;7.30;6.70;;;27.40;22.50;;;;;;2259969;61;20424;-62
2023/05/15 09:04:02;0.00;0.00;0.62;0.00;0.00;0.62;6.97;6.30;;;27.40;21.90;;;;;;2260101;61;20927;-61
2023/05/15 09:06:48;0.00;0.00;0.62;0.00;0.00;0.62;6.80;6.10;;;27.40;21.90;;;;;;2259869;61;20364;-57
2023/05/15 09:09:34;0.00;0.00;0.62;0.00;0.00;0.62;7.00;6.40;;;27.40;21.90;;;;;;2259779;61;20364;-62
2023/05/15 09:12:22;0.00;0.00;0.62;0.00;0.00;0.62;6.70;6.07;;;27.40;21.90;;;;;;2259656;61;20492;-62
2023/05/15 09:15:09;0.00;0.00;0.62;0.00;0.00;0.62;6.73;5.63;;;27.40;21.90;;;;;;2260144;61;20955;-61
2023/05/15 09:17:54;0.00;0.00;0.62;0.00;0.00;0.62;7.37;6.67;;;27.40;21.90;;;;;;2260243;61;20392;-61
2023/05/15 09:20:40;0.00;0.00;0.62;0.00;0.00;0.62;7.17;5.90;;;27.40;21.90;;;;;;2259110;61;20913;-59
2023/05/15 09:23:26;0.00;0.00;0.62;0.00;0.00;0.62;5.57;5.07;;;27.40;22.00;;;;;;2259717;61;20365;-62
2023/05/15 09:26:12;0.00;0.00;0.62;0.00;0.00;0.62;7.60;6.47;;;27.40;21.90;;;;;;2260015;61;20763;-60
2023/05/15 09:29:02;0.00;0.00;0.62;0.00;0.00;0.62;7.07;6.47;;;27.40;22.00;;;;;;2258956;61;20365;-62
2023/05/15 09:31:48;0.00;0.00;0.62;0.00;0.00;0.62;5.83;5.33;;;27.40;22.50;;;;;;2260105;61;20396;-61
2023/05/15 09:34:34;0.00;0.00;0.62;0.00;0.00;0.62;5.90;5.40;;;27.40;22.00;;;;;;2259533;61;20392;-61
2023/05/15 09:37:30;0.00;0.00;0.62;0.00;0.00;0.62;6.23;5.63;;;27.40;22.00;;;;;;2260082;61;20770;-60
2023/05/15 09:40:18;0.00;0.00;0.62;0.00;0.00;0.62;5.60;5.10;;;27.40;22.00;;;;;;2310919;40;20513;31
2023/05/15 09:43:03;0.00;0.00;0.62;0.00;0.00;0.62;5.70;5.20;;;27.40;22.00;;;;;;2249119;61;20447;-61
2023/05/15 09:45:49;0.00;0.00;0.62;0.00;0.00;0.62;5.77;5.27;;;27.40;22.00;;;;;;2248349;61;20376;-59
2023/05/15 09:48:34;0.00;0.00;0.62;0.00;0.00;0.62;5.47;4.97;;;27.40;22.00;;;;;;2247958;61;20423;-60
2023/05/15 09:51:20;0.00;0.00;0.62;0.00;0.00;0.62;7.53;5.30;;;27.50;22.10;;;;;;2247706;61;20386;-61
2023/05/15 09:54:10;0.00;0.00;0.62;0.00;0.00;0.62;4.83;4.43;;;27.40;22.00;;;;;;2248035;61;20391;-59
2023/05/15 09:56:56;0.00;0.00;0.62;0.00;0.00;0.62;4.70;4.30;;;27.50;22.10;;;;;;2247445;61;20406;-62
2023/05/15 09:59:44;0.00;0.00;0.62;0.00;0.00;0.62;5.30;4.80;;;27.50;22.10;;;;;;2243007;61;20463;-61
2023/05/15 10:02:31;0.00;0.00;0.62;0.00;0.00;0.62;6.57;5.50;;;27.50;22.10;;;;;;2244758;58;20949;-61
2023/05/15 10:05:15;0.00;0.00;0.62;0.00;0.00;0.62;4.63;4.23;;;27.50;22.10;;;;;;2247741;61;20391;-59
2023/05/15 10:08:01;0.00;0.00;0.62;0.00;0.00;0.62;5.67;5.17;;;27.50;22.10;;;;;;2248311;61;20445;-60
2023/05/15 10:10:47;0.00;0.00;0.62;0.00;0.00;0.62;5.40;4.90;;;27.50;22.10;;;;;;2247757;61;20390;-61
2023/05/15 10:13:34;0.00;0.00;0.62;0.00;0.00;0.62;5.70;5.00;;;27.50;22.10;;;;;;2247982;61;20924;-63
2023/05/15 10:16:21;0.00;0.00;0.62;0.00;0.00;0.62;5.13;4.63;;;27.50;22.10;;;;;;2247679;61;20380;-63
2023/05/15 10:19:09;0.00;0.00;0.62;0.00;0.00;0.62;5.00;4.50;;;27.50;22.10;;;;;;2248379;61;20371;-62
2023/05/15 10:21:56;0.00;0.00;0.62;0.00;0.00;0.62;5.47;4.90;;;27.50;22.10;;;;;;2248931;61;20939;-63
2023/05/15 10:24:43;0.00;0.00;0.62;0.00;0.00;0.62;5.20;4.70;;;27.50;22.20;;;;;;2247645;61;20901;-62
2023/05/15 10:27:29;0.00;0.00;0.62;0.00;0.00;0.62;4.50;4.10;;;27.50;22.20;;;;;;2247420;61;20419;-61
2023/05/15 10:30:15;0.00;0.00;0.62;0.00;0.00;0.62;4.00;3.70;;;27.60;22.30;;;;;;2260047;40;20455;-59
2023/05/15 10:33:03;0.00;0.00;0.62;0.00;0.00;0.62;4.60;4.20;;;27.60;22.30;;;;;;2256649;61;20494;-63
2023/05/15 10:35:50;0.00;0.00;0.62;0.00;0.00;0.62;5.30;4.80;;;27.60;22.30;;;;;;2256432;61;20376;-59
2023/05/15 10:38:37;0.00;0.00;0.62;0.00;0.00;0.62;5.10;4.60;;;27.60;22.30;;;;;;2256434;61;20381;-60
2023/05/15 10:41:23;0.00;0.00;0.62;0.00;0.00;0.62;4.67;4.27;;;27.60;22.30;;;;;;2252893;61;20449;-61
2023/05/15 10:44:09;0.00;0.00;0.62;0.00;0.00;0.62;4.53;4.13;;;27.60;22.30;;;;;;2252675;61;20458;-60
2023/05/15 10:46:55;0.00;0.00;0.62;0.00;0.00;0.62;4.50;4.10;;;27.60;22.30;;;;;;2252733;61;20367;-59
2023/05/15 10:49:40;0.00;0.00;0.62;0.00;0.00;0.62;4.43;4.03;;;27.60;22.30;;;;;;2251516;61;20947;-59
2023/05/15 10:52:26;0.00;0.00;0.62;0.00;0.00;0.62;5.43;4.57;;;27.70;22.30;;;;;;2252738;61;20894;-63
2023/05/15 10:55:16;0.00;0.00;0.62;0.00;0.00;0.62;4.20;3.80;;;27.70;22.30;;;;;;2251938;61;20421;-63